TAF Text Data
IDs:
Format:
Raw Decoded Include METAR

Data at: 1056 UTC 21 Oct 2019

TAF for:KAUS (Austin/Bergstrom Int, TX, US) issued at 0948 UTC 21 Oct 2019
Text:KAUS 210948Z 2110/2212 26005KT P6SM VCSH SCT070 BKN080 BKN110
Forecast period:1000 to 1200 UTC 21 October 2019
Forecast type:FROM: standard forecast or significant change
Winds:from the W (260 degrees) at 6 MPH (5 knots; 2.6 m/s)
Visibility:6 or more sm (10+ km)
Ceiling:8000 feet AGL
Clouds: scattered clouds at 7000 feet AGL, broken clouds at 8000 feet AGL, broken clouds at 11000 feet AGL
Weather:VCSH (showers in vicinity)
Text:FM211200 36012KT P6SM SCT120
Forecast period:1200 to 1800 UTC 21 October 2019
Forecast type:FROM: standard forecast or significant change
Winds:from the N (360 degrees) at 14 MPH (12 knots; 6.2 m/s)
Visibility:6 or more sm (10+ km)
Ceiling:at least 12,000 feet AGL
Clouds: scattered clouds at 12000 feet AGL
Text:FM211800 01005KT P6SM SKC
Forecast period:1800 UTC 21 October 2019 to 1200 UTC 22 October 2019
Forecast type:FROM: standard forecast or significant change
Winds:from the N (10 degrees) at 6 MPH (5 knots; 2.6 m/s)
Visibility:6 or more sm (10+ km)
Ceiling:at least 12,000 feet AGL
Clouds:clear skies